sensor_id;sensor_type;location;lat;lon;timestamp;pressure;altitude;pressure_sealevel;temperature;humidity
74242;BME280;62599;49.146;10.426;2023-04-29T00:00:35;95412.09;;;8.19;100.00
74242;BME280;62599;49.146;10.426;2023-04-29T00:03:01;95410.81;;;8.25;100.00
74242;BME280;62599;49.146;10.426;2023-04-29T00:05:26;95403.22;;;8.27;100.00
74242;BME280;62599;49.146;10.426;2023-04-29T00:07:52;95401.16;;;8.33;100.00
74242;BME280;62599;49.146;10.426;2023-04-29T00:10:18;95401.31;;;8.36;100.00
74242;BME280;62599;49.146;10.426;2023-04-29T00:12:43;95405.72;;;8.41;100.00
74242;BME280;62599;49.146;10.426;2023-04-29T00:15:09;95395.59;;;8.47;100.00
74242;BME280;62599;49.146;10.426;2023-04-29T00:17:34;95397.81;;;8.44;100.00
74242;BME280;62599;49.146;10.426;2023-04-29T00:20:01;95403.16;;;8.44;100.00
74242;BME280;62599;49.146;10.426;2023-04-29T00:22:26;95396.41;;;8.38;100.00
74242;BME280;62599;49.146;10.426;2023-04-29T00:24:52;95395.00;;;8.32;100.00
74242;BME280;62599;49.146;10.426;2023-04-29T00:27:17;95393.88;;;8.33;100.00
74242;BME280;62599;49.146;10.426;2023-04-29T00:29:43;95397.56;;;8.29;100.00
74242;BME280;62599;49.146;10.426;2023-04-29T00:32:08;95390.19;;;8.17;100.00
74242;BME280;62599;49.146;10.426;2023-04-29T00:34:34;95395.91;;;8.07;100.00
74242;BME280;62599;49.146;10.426;2023-04-29T00:36:59;95392.16;;;7.99;100.00
74242;BME280;62599;49.146;10.426;2023-04-29T00:39:25;95396.91;;;7.93;100.00
74242;BME280;62599;49.146;10.426;2023-04-29T00:41:51;95399.41;;;7.99;100.00
74242;BME280;62599;49.146;10.426;2023-04-29T00:44:17;95399.69;;;8.06;100.00
74242;BME280;62599;49.146;10.426;2023-04-29T00:46:42;95404.69;;;8.16;100.00
74242;BME280;62599;49.146;10.426;2023-04-29T00:49:08;95397.69;;;8.32;100.00
74242;BME280;62599;49.146;10.426;2023-04-29T00:51:35;95397.06;;;8.35;100.00
74242;BME280;62599;49.146;10.426;2023-04-29T00:54:04;95404.28;;;8.35;100.00
74242;BME280;62599;49.146;10.426;2023-04-29T00:56:30;95394.19;;;8.40;100.00
74242;BME280;62599;49.146;10.426;2023-04-29T00:58:57;95392.28;;;8.50;100.00
74242;BME280;62599;49.146;10.426;2023-04-29T01:01:22;95389.97;;;8.60;100.00
74242;BME280;62599;49.146;10.426;2023-04-29T01:03:49;95400.97;;;8.67;100.00
74242;BME280;62599;49.146;10.426;2023-04-29T01:15:04;95401.34;;;9.08;100.00
74242;BME280;62599;49.146;10.426;2023-04-29T01:17:41;95398.84;;;9.03;100.00
74242;BME280;62599;49.146;10.426;2023-04-29T01:20:09;95399.03;;;8.98;100.00
74242;BME280;62599;49.146;10.426;2023-04-29T01:22:35;95399.22;;;8.92;100.00
74242;BME280;62599;49.146;10.426;2023-04-29T01:25:01;95402.50;;;8.98;100.00
74242;BME280;62599;49.146;10.426;2023-04-29T01:27:38;95397.59;;;9.00;100.00
74242;BME280;62599;49.146;10.426;2023-04-29T01:38:35;95405.25;;;8.89;100.00
74242;BME280;62599;49.146;10.426;2023-04-29T01:41:12;95406.38;;;8.88;100.00
74242;BME280;62599;49.146;10.426;2023-04-29T01:43:39;95405.72;;;8.91;100.00
74242;BME280;62599;49.146;10.426;2023-04-29T01:46:05;95408.81;;;9.02;100.00
74242;BME280;62599;49.146;10.426;2023-04-29T01:48:33;95403.56;;;9.06;100.00
74242;BME280;62599;49.146;10.426;2023-04-29T01:50:58;95408.47;;;9.04;100.00
74242;BME280;62599;49.146;10.426;2023-04-29T01:53:24;95402.19;;;9.00;100.00
74242;BME280;62599;49.146;10.426;2023-04-29T01:55:49;95403.16;;;8.95;100.00
74242;BME280;62599;49.146;10.426;2023-04-29T01:58:14;95400.81;;;8.94;100.00
74242;BME280;62599;49.146;10.426;2023-04-29T02:00:40;95414.31;;;9.06;100.00
74242;BME280;62599;49.146;10.426;2023-04-29T02:03:06;95407.88;;;9.19;100.00
74242;BME280;62599;49.146;10.426;2023-04-29T02:05:32;95405.78;;;9.25;100.00
74242;BME280;62599;49.146;10.426;2023-04-29T02:08:01;95410.63;;;9.31;100.00
74242;BME280;62599;49.146;10.426;2023-04-29T02:10:26;95406.28;;;9.39;100.00
74242;BME280;62599;49.146;10.426;2023-04-29T02:12:52;95412.91;;;9.42;100.00
74242;BME280;62599;49.146;10.426;2023-04-29T02:15:18;95413.34;;;9.44;100.00
74242;BME280;62599;49.146;10.426;2023-04-29T02:17:46;95413.59;;;9.51;100.00
74242;BME280;62599;49.146;10.426;2023-04-29T02:20:12;95416.34;;;9.63;100.00
74242;BME280;62599;49.146;10.426;2023-04-29T02:22:37;95415.81;;;9.70;100.00
74242;BME280;62599;49.146;10.426;2023-04-29T02:25:03;95420.75;;;9.80;100.00
74242;BME280;62599;49.146;10.426;2023-04-29T02:27:29;95412.38;;;9.94;100.00
74242;BME280;62599;49.146;10.426;2023-04-29T02:29:54;95411.94;;;10.04;100.00
74242;BME280;62599;49.146;10.426;2023-04-29T02:32:19;95413.84;;;10.16;100.00
74242;BME280;62599;49.146;10.426;2023-04-29T02:34:45;95419.81;;;10.21;100.00
74242;BME280;62599;49.146;10.426;2023-04-29T02:37:14;95413.53;;;10.17;100.00
74242;BME280;62599;49.146;10.426;2023-04-29T02:39:40;95407.47;;;10.08;100.00
74242;BME280;62599;49.146;10.426;2023-04-29T02:42:05;95412.94;;;9.99;100.00
74242;BME280;62599;49.146;10.426;2023-04-29T02:44:30;95413.63;;;9.96;100.00
74242;BME280;62599;49.146;10.426;2023-04-29T02:46:56;95407.22;;;9.88;100.00
74242;BME280;62599;49.146;10.426;2023-04-29T02:49:22;95408.28;;;9.75;100.00
74242;BME280;62599;49.146;10.426;2023-04-29T02:51:47;95410.84;;;9.59;100.00
74242;BME280;62599;49.146;10.426;2023-04-29T02:54:15;95411.34;;;9.40;100.00
74242;BME280;62599;49.146;10.426;2023-04-29T02:56:41;95407.19;;;9.22;100.00
74242;BME280;62599;49.146;10.426;2023-04-29T02:59:06;95412.41;;;9.06;100.00
74242;BME280;62599;49.146;10.426;2023-04-29T03:01:32;95409.44;;;8.99;100.00
74242;BME280;62599;49.146;10.426;2023-04-29T03:03:57;95409.53;;;8.90;100.00
74242;BME280;62599;49.146;10.426;2023-04-29T03:06:23;95405.94;;;8.86;100.00
74242;BME280;62599;49.146;10.426;2023-04-29T03:08:48;95409.56;;;8.82;100.00
74242;BME280;62599;49.146;10.426;2023-04-29T03:11:14;95416.66;;;8.86;100.00
74242;BME280;62599;49.146;10.426;2023-04-29T03:13:40;95411.88;;;8.92;100.00
74242;BME280;62599;49.146;10.426;2023-04-29T03:16:05;95413.00;;;8.91;100.00
74242;BME280;62599;49.146;10.426;2023-04-29T03:18:31;95409.84;;;8.89;100.00
74242;BME280;62599;49.146;10.426;2023-04-29T03:20:56;95406.56;;;8.83;100.00
74242;BME280;62599;49.146;10.426;2023-04-29T03:23:22;95404.06;;;8.78;100.00
74242;BME280;62599;49.146;10.426;2023-04-29T03:25:47;95409.16;;;8.71;100.00
74242;BME280;62599;49.146;10.426;2023-04-29T03:28:14;95411.56;;;8.64;100.00
74242;BME280;62599;49.146;10.426;2023-04-29T03:30:39;95405.69;;;8.71;100.00
74242;BME280;62599;49.146;10.426;2023-04-29T03:33:04;95403.00;;;8.71;100.00
74242;BME280;62599;49.146;10.426;2023-04-29T03:35:30;95411.41;;;8.69;100.00
74242;BME280;62599;49.146;10.426;2023-04-29T03:37:55;95412.19;;;8.70;100.00
74242;BME280;62599;49.146;10.426;2023-04-29T03:40:20;95416.56;;;8.74;100.00
74242;BME280;62599;49.146;10.426;2023-04-29T03:42:46;95406.94;;;8.73;100.00
74242;BME280;62599;49.146;10.426;2023-04-29T03:45:11;95406.34;;;8.67;100.00
74242;BME280;62599;49.146;10.426;2023-04-29T03:47:38;95395.88;;;8.54;100.00
74242;BME280;62599;49.146;10.426;2023-04-29T03:50:04;95403.16;;;8.44;100.00
74242;BME280;62599;49.146;10.426;2023-04-29T03:52:30;95405.22;;;8.48;100.00
74242;BME280;62599;49.146;10.426;2023-04-29T03:55:00;95402.19;;;8.49;100.00
74242;BME280;62599;49.146;10.426;2023-04-29T03:57:26;95405.84;;;8.44;100.00
74242;BME280;62599;49.146;10.426;2023-04-29T03:59:51;95409.31;;;8.45;100.00
74242;BME280;62599;49.146;10.426;2023-04-29T04:02:17;95411.63;;;8.55;100.00
74242;BME280;62599;49.146;10.426;2023-04-29T04:04:42;95413.63;;;8.67;100.00
74242;BME280;62599;49.146;10.426;2023-04-29T04:07:08;95409.31;;;8.75;100.00
74242;BME280;62599;49.146;10.426;2023-04-29T04:09:33;95415.63;;;8.79;100.00
74242;BME280;62599;49.146;10.426;2023-04-29T04:11:58;95417.50;;;8.78;100.00
74242;BME280;62599;49.146;10.426;2023-04-29T04:14:25;95413.25;;;8.77;100.00
74242;BME280;62599;49.146;10.426;2023-04-29T04:16:50;95423.34;;;8.80;100.00
74242;BME280;62599;49.146;10.426;2023-04-29T04:19:15;95428.06;;;8.83;100.00
74242;BME280;62599;49.146;10.426;2023-04-29T04:21:41;95426.28;;;8.87;100.00
74242;BME280;62599;49.146;10.426;2023-04-29T04:24:06;95427.84;;;8.88;100.00
74242;BME280;62599;49.146;10.426;2023-04-29T04:26:32;95438.59;;;8.88;100.00
74242;BME280;62599;49.146;10.426;2023-04-29T04:28:58;95438.59;;;8.88;100.00
74242;BME280;62599;49.146;10.426;2023-04-29T04:31:23;95439.38;;;8.89;100.00
74242;BME280;62599;49.146;10.426;2023-04-29T04:33:49;95444.56;;;8.94;100.00
74242;BME280;62599;49.146;10.426;2023-04-29T04:36:15;95444.72;;;8.98;100.00
74242;BME280;62599;49.146;10.426;2023-04-29T04:38:40;95442.94;;;9.02;100.00
74242;BME280;62599;49.146;10.426;2023-04-29T04:41:06;95438.13;;;9.07;100.00
74242;BME280;62599;49.146;10.426;2023-04-29T04:43:32;95441.16;;;9.06;100.00
74242;BME280;62599;49.146;10.426;2023-04-29T04:45:57;95440.25;;;9.02;100.00
74242;BME280;62599;49.146;10.426;2023-04-29T04:48:23;95440.91;;;8.99;100.00
74242;BME280;62599;49.146;10.426;2023-04-29T04:50:48;95449.44;;;9.01;100.00
74242;BME280;62599;49.146;10.426;2023-04-29T04:53:13;95453.81;;;9.05;100.00
74242;BME280;62599;49.146;10.426;2023-04-29T04:55:39;95460.03;;;9.18;100.00
74242;BME280;62599;49.146;10.426;2023-04-29T04:58:05;95454.28;;;9.28;100.00
74242;BME280;62599;49.146;10.426;2023-04-29T05:00:31;95464.50;;;9.35;100.00
74242;BME280;62599;49.146;10.426;2023-04-29T05:02:56;95453.88;;;9.38;100.00
74242;BME280;62599;49.146;10.426;2023-04-29T05:05:24;95459.47;;;9.33;100.00
74242;BME280;62599;49.146;10.426;2023-04-29T05:07:50;95468.56;;;9.41;100.00
74242;BME280;62599;49.146;10.426;2023-04-29T05:10:15;95455.16;;;9.53;100.00
74242;BME280;62599;49.146;10.426;2023-04-29T05:12:41;95460.06;;;9.72;100.00
74242;BME280;62599;49.146;10.426;2023-04-29T05:15:06;95461.69;;;9.85;100.00
74242;BME280;62599;49.146;10.426;2023-04-29T05:17:43;95456.13;;;10.03;100.00
74242;BME280;62599;49.146;10.426;2023-04-29T05:20:12;95461.97;;;10.17;100.00
74242;BME280;62599;49.146;10.426;2023-04-29T05:22:37;95470.34;;;10.36;100.00
74242;BME280;62599;49.146;10.426;2023-04-29T05:25:03;95466.06;;;10.48;100.00
74242;BME280;62599;49.146;10.426;2023-04-29T05:27:29;95468.09;;;10.51;100.00
74242;BME280;62599;49.146;10.426;2023-04-29T05:29:54;95468.34;;;10.46;100.00
74242;BME280;62599;49.146;10.426;2023-04-29T05:32:22;95469.66;;;10.40;100.00
74242;BME280;62599;49.146;10.426;2023-04-29T05:34:48;95472.34;;;10.52;100.00
74242;BME280;62599;49.146;10.426;2023-04-29T05:37:13;95464.16;;;10.85;100.00
74242;BME280;62599;49.146;10.426;2023-04-29T05:39:39;95477.00;;;11.28;100.00
74242;BME280;62599;49.146;10.426;2023-04-29T05:42:04;95474.25;;;11.53;100.00
74242;BME280;62599;49.146;10.426;2023-04-29T05:44:34;95473.31;;;11.61;100.00
74242;BME280;62599;49.146;10.426;2023-04-29T05:47:00;95475.03;;;11.53;100.00
74242;BME280;62599;49.146;10.426;2023-04-29T05:49:25;95477.41;;;11.43;100.00
74242;BME280;62599;49.146;10.426;2023-04-29T05:51:51;95480.22;;;11.46;100.00
74242;BME280;62599;49.146;10.426;2023-04-29T05:54:16;95479.22;;;11.39;100.00
74242;BME280;62599;49.146;10.426;2023-04-29T05:56:44;95480.00;;;11.51;100.00
74242;BME280;62599;49.146;10.426;2023-04-29T05:59:09;95481.34;;;11.45;100.00
74242;BME280;62599;49.146;10.426;2023-04-29T06:01:35;95495.66;;;11.33;100.00
74242;BME280;62599;49.146;10.426;2023-04-29T06:04:00;95497.44;;;11.42;100.00
74242;BME280;62599;49.146;10.426;2023-04-29T06:06:29;95502.00;;;11.53;100.00
74242;BME280;62599;49.146;10.426;2023-04-29T06:08:54;95510.59;;;11.71;100.00
74242;BME280;62599;49.146;10.426;2023-04-29T06:11:20;95515.84;;;11.92;100.00
74242;BME280;62599;49.146;10.426;2023-04-29T06:13:46;95509.97;;;12.02;100.00
74242;BME280;62599;49.146;10.426;2023-04-29T06:16:11;95502.81;;;11.82;100.00
74242;BME280;62599;49.146;10.426;2023-04-29T06:18:37;95514.63;;;11.77;100.00
74242;BME280;62599;49.146;10.426;2023-04-29T06:21:02;95515.97;;;11.84;100.00
74242;BME280;62599;49.146;10.426;2023-04-29T06:23:28;95518.88;;;12.19;100.00
74242;BME280;62599;49.146;10.426;2023-04-29T06:25:53;95527.25;;;12.45;100.00
74242;BME280;62599;49.146;10.426;2023-04-29T06:28:18;95524.50;;;12.42;100.00
74242;BME280;62599;49.146;10.426;2023-04-29T06:30:44;95525.91;;;12.23;100.00
74242;BME280;62599;49.146;10.426;2023-04-29T06:33:12;95535.88;;;11.91;100.00
74242;BME280;62599;49.146;10.426;2023-04-29T06:35:38;95538.97;;;12.06;100.00
74242;BME280;62599;49.146;10.426;2023-04-29T06:38:05;95539.72;;;12.34;100.00
74242;BME280;62599;49.146;10.426;2023-04-29T06:40:32;95542.09;;;12.36;100.00
74242;BME280;62599;49.146;10.426;2023-04-29T06:42:57;95542.50;;;12.38;100.00
74242;BME280;62599;49.146;10.426;2023-04-29T06:45:23;95544.38;;;12.49;100.00
74242;BME280;62599;49.146;10.426;2023-04-29T06:47:49;95544.78;;;12.51;100.00
74242;BME280;62599;49.146;10.426;2023-04-29T06:50:15;95543.81;;;12.44;100.00
74242;BME280;62599;49.146;10.426;2023-04-29T06:52:40;95546.09;;;12.42;100.00
74242;BME280;62599;49.146;10.426;2023-04-29T06:55:06;95544.97;;;12.43;100.00
74242;BME280;62599;49.146;10.426;2023-04-29T06:57:34;95539.69;;;12.18;100.00
74242;BME280;62599;49.146;10.426;2023-04-29T07:00:12;95550.03;;;12.16;100.00
74242;BME280;62599;49.146;10.426;2023-04-29T07:02:37;95545.84;;;12.47;100.00
74242;BME280;62599;49.146;10.426;2023-04-29T07:05:04;95550.47;;;12.78;100.00
74242;BME280;62599;49.146;10.426;2023-04-29T07:07:30;95550.91;;;12.80;100.00
74242;BME280;62599;49.146;10.426;2023-04-29T07:09:55;95554.50;;;12.84;100.00
74242;BME280;62599;49.146;10.426;2023-04-29T07:12:21;95556.31;;;12.64;100.00
74242;BME280;62599;49.146;10.426;2023-04-29T07:14:46;95559.34;;;12.47;100.00
74242;BME280;62599;49.146;10.426;2023-04-29T07:17:15;95560.41;;;12.14;100.00
74242;BME280;62599;49.146;10.426;2023-04-29T07:19:41;95564.44;;;11.92;100.00
74242;BME280;62599;49.146;10.426;2023-04-29T07:22:06;95567.06;;;12.04;100.00
74242;BME280;62599;49.146;10.426;2023-04-29T07:24:34;95566.78;;;11.94;100.00
74242;BME280;62599;49.146;10.426;2023-04-29T07:27:00;95568.16;;;12.16;100.00
74242;BME280;62599;49.146;10.426;2023-04-29T07:29:25;95560.91;;;12.48;100.00
74242;BME280;62599;49.146;10.426;2023-04-29T07:31:50;95568.09;;;12.88;100.00
74242;BME280;62599;49.146;10.426;2023-04-29T07:34:16;95567.22;;;13.15;100.00
74242;BME280;62599;49.146;10.426;2023-04-29T07:36:41;95573.69;;;13.27;100.00
74242;BME280;62599;49.146;10.426;2023-04-29T07:39:07;95575.63;;;13.26;100.00
74242;BME280;62599;49.146;10.426;2023-04-29T07:41:33;95571.00;;;13.27;100.00
74242;BME280;62599;49.146;10.426;2023-04-29T07:44:01;95581.00;;;13.10;100.00
74242;BME280;62599;49.146;10.426;2023-04-29T07:46:37;95579.59;;;13.16;100.00
74242;BME280;62599;49.146;10.426;2023-04-29T07:49:08;95578.91;;;13.51;100.00
74242;BME280;62599;49.146;10.426;2023-04-29T07:51:34;95589.13;;;13.77;100.00
74242;BME280;62599;49.146;10.426;2023-04-29T07:53:59;95581.00;;;13.77;100.00
74242;BME280;62599;49.146;10.426;2023-04-29T07:56:25;95580.47;;;13.87;100.00
74242;BME280;62599;49.146;10.426;2023-04-29T07:58:50;95590.47;;;13.87;100.00
74242;BME280;62599;49.146;10.426;2023-04-29T08:01:19;95593.75;;;13.77;100.00
74242;BME280;62599;49.146;10.426;2023-04-29T08:03:45;95597.47;;;13.53;100.00
74242;BME280;62599;49.146;10.426;2023-04-29T08:06:11;95604.81;;;13.52;100.00
74242;BME280;62599;49.146;10.426;2023-04-29T08:08:37;95614.75;;;13.16;100.00
74242;BME280;62599;49.146;10.426;2023-04-29T08:11:05;95613.94;;;12.24;100.00
74242;BME280;62599;49.146;10.426;2023-04-29T08:13:30;95613.25;;;12.27;100.00
74242;BME280;62599;49.146;10.426;2023-04-29T08:15:56;95622.34;;;11.95;100.00
74242;BME280;62599;49.146;10.426;2023-04-29T08:18:25;95621.13;;;11.92;100.00
74242;BME280;62599;49.146;10.426;2023-04-29T08:20:50;95628.56;;;11.46;100.00
74242;BME280;62599;49.146;10.426;2023-04-29T08:23:16;95628.00;;;11.53;100.00
74242;BME280;62599;49.146;10.426;2023-04-29T08:25:44;95633.84;;;11.30;100.00
74242;BME280;62599;49.146;10.426;2023-04-29T08:28:10;95634.19;;;11.66;100.00
74242;BME280;62599;49.146;10.426;2023-04-29T08:30:39;95641.25;;;11.95;100.00
74242;BME280;62599;49.146;10.426;2023-04-29T08:33:05;95639.16;;;12.44;100.00
74242;BME280;62599;49.146;10.426;2023-04-29T08:35:30;95645.59;;;12.68;100.00
74242;BME280;62599;49.146;10.426;2023-04-29T08:37:56;95641.34;;;12.98;100.00
74242;BME280;62599;49.146;10.426;2023-04-29T08:40:21;95641.44;;;13.02;100.00
74242;BME280;62599;49.146;10.426;2023-04-29T08:42:47;95630.41;;;12.63;100.00
74242;BME280;62599;49.146;10.426;2023-04-29T08:45:14;95640.88;;;12.37;100.00
74242;BME280;62599;49.146;10.426;2023-04-29T08:47:44;95643.06;;;12.19;100.00
74242;BME280;62599;49.146;10.426;2023-04-29T08:50:10;95646.63;;;11.82;100.00
74242;BME280;62599;49.146;10.426;2023-04-29T08:52:36;95637.75;;;11.82;100.00
74242;BME280;62599;49.146;10.426;2023-04-29T08:55:01;95652.97;;;11.62;100.00
74242;BME280;62599;49.146;10.426;2023-04-29T08:57:28;95655.75;;;11.29;100.00
74242;BME280;62599;49.146;10.426;2023-04-29T08:59:54;95659.16;;;10.80;100.00
74242;BME280;62599;49.146;10.426;2023-04-29T09:02:21;95666.88;;;10.70;100.00
74242;BME280;62599;49.146;10.426;2023-04-29T09:05:11;95659.88;;;10.90;100.00
74242;BME280;62599;49.146;10.426;2023-04-29T09:07:40;95659.78;;;11.11;100.00
74242;BME280;62599;49.146;10.426;2023-04-29T09:10:06;95661.25;;;11.32;100.00
74242;BME280;62599;49.146;10.426;2023-04-29T09:12:36;95656.56;;;11.29;100.00
74242;BME280;62599;49.146;10.426;2023-04-29T09:15:04;95656.97;;;11.93;100.00
74242;BME280;62599;49.146;10.426;2023-04-29T09:22:56;95648.63;;;13.42;100.00
74242;BME280;62599;49.146;10.426;2023-04-29T09:25:22;95656.41;;;13.59;100.00
74242;BME280;62599;49.146;10.426;2023-04-29T09:27:48;95652.91;;;13.27;100.00
74242;BME280;62599;49.146;10.426;2023-04-29T09:30:19;95652.22;;;13.30;100.00
74242;BME280;62599;49.146;10.426;2023-04-29T09:33:11;95651.06;;;13.47;100.00
74242;BME280;62599;49.146;10.426;2023-04-29T09:35:39;95658.38;;;12.99;100.00
74242;BME280;62599;49.146;10.426;2023-04-29T09:38:13;95657.53;;;12.39;100.00
74242;BME280;62599;49.146;10.426;2023-04-29T09:40:40;95662.75;;;13.04;100.00
74242;BME280;62599;49.146;10.426;2023-04-29T09:43:16;95665.56;;;12.23;100.00
74242;BME280;62599;49.146;10.426;2023-04-29T09:45:48;95671.66;;;12.60;100.00
74242;BME280;62599;49.146;10.426;2023-04-29T09:48:14;95677.44;;;11.81;100.00
74242;BME280;62599;49.146;10.426;2023-04-29T09:50:41;95674.44;;;12.64;100.00
74242;BME280;62599;49.146;10.426;2023-04-29T09:53:09;95668.69;;;13.25;100.00
74242;BME280;62599;49.146;10.426;2023-04-29T09:58:01;95676.75;;;13.37;100.00
74242;BME280;62599;49.146;10.426;2023-04-29T10:00:31;95678.03;;;14.10;100.00
74242;BME280;62599;49.146;10.426;2023-04-29T10:03:00;95669.91;;;14.65;100.00
74242;BME280;62599;49.146;10.426;2023-04-29T10:05:35;95672.34;;;13.64;100.00
74242;BME280;62599;49.146;10.426;2023-04-29T10:08:00;95675.88;;;14.00;100.00
74242;BME280;62599;49.146;10.426;2023-04-29T10:10:29;95690.03;;;14.64;100.00
74242;BME280;62599;49.146;10.426;2023-04-29T10:12:54;95678.97;;;14.53;96.40
74242;BME280;62599;49.146;10.426;2023-04-29T10:15:44;95674.91;;;14.08;95.44
74242;BME280;62599;49.146;10.426;2023-04-29T10:18:21;95681.50;;;13.76;99.55
74242;BME280;62599;49.146;10.426;2023-04-29T10:20:51;95678.13;;;13.15;100.00
74242;BME280;62599;49.146;10.426;2023-04-29T10:23:16;95680.69;;;13.40;94.64
74242;BME280;62599;49.146;10.426;2023-04-29T10:25:45;95691.06;;;13.38;100.00
74242;BME280;62599;49.146;10.426;2023-04-29T10:28:16;95684.06;;;12.77;100.00
74242;BME280;62599;49.146;10.426;2023-04-29T10:30:49;95684.16;;;13.24;98.42
74242;BME280;62599;49.146;10.426;2023-04-29T10:33:16;95675.84;;;12.73;100.00
74242;BME280;62599;49.146;10.426;2023-04-29T10:35:43;95678.97;;;13.19;97.62
74242;BME280;62599;49.146;10.426;2023-04-29T10:38:20;95682.19;;;12.93;93.67
74242;BME280;62599;49.146;10.426;2023-04-29T10:40:51;95680.69;;;12.96;92.16
74242;BME280;62599;49.146;10.426;2023-04-29T10:43:24;95681.75;;;12.63;92.13
74242;BME280;62599;49.146;10.426;2023-04-29T10:48:45;95691.94;;;12.54;93.10
74242;BME280;62599;49.146;10.426;2023-04-29T10:51:11;95683.88;;;12.42;91.45
74242;BME280;62599;49.146;10.426;2023-04-29T10:54:09;95705.31;;;12.10;90.67
74242;BME280;62599;49.146;10.426;2023-04-29T10:56:40;95697.94;;;11.95;92.08
74242;BME280;62599;49.146;10.426;2023-04-29T10:59:14;95706.34;;;12.06;90.02
74242;BME280;62599;49.146;10.426;2023-04-29T11:01:44;95700.16;;;12.73;90.56
74242;BME280;62599;49.146;10.426;2023-04-29T11:04:11;95696.13;;;13.55;85.87
74242;BME280;62599;49.146;10.426;2023-04-29T11:14:34;95692.03;;;15.09;76.78
74242;BME280;62599;49.146;10.426;2023-04-29T11:17:05;95687.34;;;15.52;74.96
74242;BME280;62599;49.146;10.426;2023-04-29T11:19:33;95691.13;;;15.67;74.08
74242;BME280;62599;49.146;10.426;2023-04-29T11:25:06;95693.00;;;15.21;71.47
74242;BME280;62599;49.146;10.426;2023-04-29T11:27:35;95682.69;;;13.94;77.17
74242;BME280;62599;49.146;10.426;2023-04-29T11:30:02;95678.34;;;14.25;76.90
74242;BME280;62599;49.146;10.426;2023-04-29T11:32:37;95681.50;;;14.46;76.45
74242;BME280;62599;49.146;10.426;2023-04-29T11:35:13;95687.66;;;14.82;73.75
74242;BME280;62599;49.146;10.426;2023-04-29T11:37:41;95692.53;;;15.15;74.02
74242;BME280;62599;49.146;10.426;2023-04-29T11:40:08;95692.59;;;15.64;72.85
74242;BME280;62599;49.146;10.426;2023-04-29T11:42:35;95687.63;;;16.20;71.75
74242;BME280;62599;49.146;10.426;2023-04-29T11:45:00;95689.16;;;16.77;69.56
74242;BME280;62599;49.146;10.426;2023-04-29T11:47:28;95687.72;;;16.57;64.35
74242;BME280;62599;49.146;10.426;2023-04-29T11:50:01;95687.78;;;16.60;67.15
74242;BME280;62599;49.146;10.426;2023-04-29T11:52:27;95691.13;;;16.50;67.41
74242;BME280;62599;49.146;10.426;2023-04-29T11:54:53;95691.38;;;16.38;66.85
74242;BME280;62599;49.146;10.426;2023-04-29T11:57:18;95691.78;;;15.37;68.60
74242;BME280;62599;49.146;10.426;2023-04-29T11:59:45;95688.38;;;14.59;70.54
74242;BME280;62599;49.146;10.426;2023-04-29T12:02:11;95701.06;;;13.85;73.83
74242;BME280;62599;49.146;10.426;2023-04-29T12:04:47;95704.28;;;13.11;78.33
74242;BME280;62599;49.146;10.426;2023-04-29T12:07:14;95713.94;;;12.96;80.71
74242;BME280;62599;49.146;10.426;2023-04-29T12:09:44;95705.38;;;12.66;82.51
74242;BME280;62599;49.146;10.426;2023-04-29T12:12:10;95699.00;;;12.59;83.01
74242;BME280;62599;49.146;10.426;2023-04-29T12:14:37;95714.63;;;12.65;84.78
74242;BME280;62599;49.146;10.426;2023-04-29T12:17:03;95710.09;;;12.69;83.47
74242;BME280;62599;49.146;10.426;2023-04-29T12:19:29;95712.94;;;12.89;83.40
74242;BME280;62599;49.146;10.426;2023-04-29T12:21:58;95720.69;;;13.18;83.62
74242;BME280;62599;49.146;10.426;2023-04-29T12:24:23;95718.63;;;13.28;83.08
74242;BME280;62599;49.146;10.426;2023-04-29T12:26:49;95708.63;;;13.44;82.23
74242;BME280;62599;49.146;10.426;2023-04-29T12:29:15;95726.22;;;13.54;79.99
74242;BME280;62599;49.146;10.426;2023-04-29T12:31:40;95716.63;;;13.88;79.66
74242;BME280;62599;49.146;10.426;2023-04-29T12:34:07;95722.78;;;14.04;77.21
74242;BME280;62599;49.146;10.426;2023-04-29T12:36:33;95719.34;;;14.23;75.58
74242;BME280;62599;49.146;10.426;2023-04-29T12:38:58;95718.47;;;14.54;75.09
74242;BME280;62599;49.146;10.426;2023-04-29T12:41:40;95711.50;;;14.37;74.80
74242;BME280;62599;49.146;10.426;2023-04-29T12:44:07;95719.72;;;14.41;74.66
74242;BME280;62599;49.146;10.426;2023-04-29T12:46:37;95713.13;;;14.23;74.06
74242;BME280;62599;49.146;10.426;2023-04-29T12:49:03;95725.09;;;13.86;75.91
74242;BME280;62599;49.146;10.426;2023-04-29T12:51:33;95717.59;;;13.64;77.16
74242;BME280;62599;49.146;10.426;2023-04-29T12:54:03;95718.69;;;13.15;77.26
74242;BME280;62599;49.146;10.426;2023-04-29T12:56:29;95722.22;;;13.32;77.93
74242;BME280;62599;49.146;10.426;2023-04-29T12:58:55;95721.97;;;13.37;77.65
74242;BME280;62599;49.146;10.426;2023-04-29T13:01:21;95728.69;;;13.59;76.43
74242;BME280;62599;49.146;10.426;2023-04-29T13:03:46;95720.56;;;13.43;76.84
74242;BME280;62599;49.146;10.426;2023-04-29T13:06:13;95727.47;;;13.56;76.73
74242;BME280;62599;49.146;10.426;2023-04-29T13:08:39;95722.72;;;14.01;75.07
74242;BME280;62599;49.146;10.426;2023-04-29T13:11:04;95724.03;;;14.26;73.63
74242;BME280;62599;49.146;10.426;2023-04-29T13:13:31;95730.69;;;14.29;74.43
74242;BME280;62599;49.146;10.426;2023-04-29T13:15:59;95728.81;;;14.13;73.27
74242;BME280;62599;49.146;10.426;2023-04-29T13:18:28;95724.13;;;13.94;73.96
74242;BME280;62599;49.146;10.426;2023-04-29T13:20:53;95723.31;;;13.94;75.54
74242;BME280;62599;49.146;10.426;2023-04-29T13:23:18;95723.41;;;13.97;75.76